Time;durP1;ratioP1;P1;durP2;ratioP2;P2;SDS_P1;SDS_P2;PMS_P1;PMS_P2;Temp;Humidity;BMP_temperature;BMP_pressure;BME280_temperature;BME280_humidity;BME280_pressure;Samples;Min_cycle;Max_cycle;Signal;HPM_P1;HPM_P2
2023/04/14 00:02:11;;;;;;;;;1.75;0.50;;;;;11.74;51.63;100468.72;5009099;28;47552;-61
2023/04/14 00:04:37;;;;;;;;;1.00;1.00;;;;;11.70;51.72;100474.91;5012472;28;45333;-61
2023/04/14 00:07:02;;;;;;;;;1.25;1.25;;;;;11.72;51.15;100476.72;5014491;28;58178;-61
2023/04/14 00:09:28;;;;;;;;;0.75;0.75;;;;;11.69;50.88;100462.41;5011547;28;45410;-62
2023/04/14 00:11:56;;;;;;;;;2.00;0.00;;;;;11.75;51.78;100471.44;5017011;28;45566;-62
2023/04/14 00:14:21;;;;;;;;;0.00;0.00;;;;;11.75;51.19;100467.84;5015367;28;45463;-62
2023/04/14 00:16:47;;;;;;;;;7.00;2.75;;;;;11.67;51.43;100458.78;5014583;28;45333;-61
2023/04/14 00:19:13;;;;;;;;;2.00;2.00;;;;;11.69;51.69;100463.28;5015715;28;45406;-62
2023/04/14 00:21:38;;;;;;;;;3.00;2.00;;;;;11.68;52.14;100463.25;5016542;28;45576;-62
2023/04/14 00:24:04;;;;;;;;;2.00;2.00;;;;;11.69;52.59;100459.72;5016495;28;45472;-62
2023/04/14 00:26:30;;;;;;;;;3.00;1.00;;;;;11.66;52.36;100456.97;5016961;28;45516;-64
2023/04/14 00:28:56;;;;;;;;;0.25;0.25;;;;;11.59;52.98;100450.63;5018046;28;45632;-61
2023/04/14 00:31:21;;;;;;;;;3.00;2.50;;;;;11.54;53.39;100453.22;5019375;28;45504;-62
2023/04/14 00:33:46;;;;;;;;;2.25;2.00;;;;;11.48;53.49;100454.88;5015986;28;46106;-63
2023/04/14 00:36:12;;;;;;;;;2.75;2.75;;;;;11.41;53.06;100451.19;5013887;28;45922;-62
2023/04/14 00:38:37;;;;;;;;;0.00;0.00;;;;;11.33;53.12;100450.16;5016477;28;45593;-62
2023/04/14 00:41:02;;;;;;;;;1.00;0.75;;;;;11.31;53.69;100455.47;5013289;28;47539;-61
2023/04/14 00:43:28;;;;;;;;;1.75;1.75;;;;;11.23;54.18;100449.09;5015203;28;45517;-62
2023/04/14 00:45:54;;;;;;;;;1.25;1.00;;;;;11.24;53.80;100456.25;5019645;28;45662;-63
2023/04/14 00:48:19;;;;;;;;;1.75;1.50;;;;;11.21;54.12;100443.69;5017282;28;45517;-61
2023/04/14 00:50:46;;;;;;;;;1.50;1.50;;;;;11.23;53.83;100447.28;5014439;28;46182;-62
2023/04/14 00:53:12;;;;;;;;;2.75;1.00;;;;;11.17;54.46;100431.16;5011723;28;46826;-61
2023/04/14 00:55:39;;;;;;;;;1.50;1.50;;;;;11.21;53.84;100446.38;5013114;28;45506;-61
2023/04/14 00:58:04;;;;;;;;;1.00;1.00;;;;;11.21;54.01;100438.34;5010823;28;45517;-61
2023/04/14 01:00:30;;;;;;;;;2.00;1.00;;;;;11.18;54.63;100445.44;5015195;28;46135;-61
2023/04/14 01:02:55;;;;;;;;;2.75;2.25;;;;;11.10;54.72;100434.56;5012774;28;45511;-60
2023/04/14 01:05:21;;;;;;;;;1.00;1.00;;;;;10.97;54.48;100424.50;5013356;28;45493;-61
2023/04/14 01:07:48;;;;;;;;;1.25;1.25;;;;;11.12;54.74;100437.28;5015008;28;47891;-62
2023/04/14 01:10:14;;;;;;;;;1.75;1.75;;;;;11.13;54.50;100433.75;5014994;28;46634;-61
2023/04/14 01:13:05;;;;;;;;;1.00;1.00;;;;;11.07;54.88;100438.09;5007952;28;45435;-61
2023/04/14 01:15:36;;;;;;;;;1.00;1.00;;;;;11.04;54.94;100439.81;5010266;28;45660;-62
2023/04/14 01:18:25;;;;;;;;;1.00;1.00;;;;;10.96;54.75;100431.66;5012622;28;45390;-62
2023/04/14 01:20:55;;;;;;;;;1.75;1.75;;;;;10.90;55.11;100422.59;5012655;28;45630;-62
2023/04/14 01:23:25;;;;;;;;;1.25;1.25;;;;;10.97;55.59;100438.81;5014726;28;45702;-60
2023/04/14 01:26:17;;;;;;;;;1.00;1.00;;;;;10.98;55.82;100437.91;5013739;28;45551;-63
2023/04/14 01:29:01;;;;;;;;;1.50;1.50;;;;;11.01;55.27;100440.66;5013995;28;45493;-61
2023/04/14 01:31:34;;;;;;;;;1.00;1.00;;;;;10.98;55.38;100442.38;5016477;28;46663;-60
2023/04/14 01:34:13;;;;;;;;;1.00;1.00;;;;;10.92;55.52;100452.94;5017825;28;45305;-62
2023/04/14 01:36:46;;;;;;;;;1.75;0.75;;;;;10.83;55.63;100440.28;5016414;28;45764;-61
2023/04/14 01:39:17;;;;;;;;;3.00;2.00;;;;;10.86;55.74;100448.38;5018196;28;45340;-62
2023/04/14 01:41:46;;;;;;;;;1.00;1.00;;;;;10.79;56.01;100427.72;5019462;28;45409;-64
2023/04/14 01:44:14;;;;;;;;;1.00;1.00;;;;;10.84;55.79;100431.41;5016547;28;45458;-62
2023/04/14 01:46:41;;;;;;;;;2.00;0.00;;;;;10.59;56.12;100393.50;5017968;28;45659;-62
2023/04/14 01:49:08;;;;;;;;;1.00;1.00;;;;;10.85;55.90;100433.19;5016723;28;45607;-60
2023/04/14 01:51:35;;;;;;;;;3.00;2.00;;;;;10.81;56.19;100434.91;5013541;28;45473;-62
2023/04/14 01:54:03;;;;;;;;;1.50;1.50;;;;;10.83;56.22;100426.94;5012846;28;45434;-61
2023/04/14 01:56:28;;;;;;;;;0.25;0.25;;;;;10.82;56.25;100439.41;5012213;28;45385;-62
2023/04/14 01:58:56;;;;;;;;;1.00;1.00;;;;;10.81;56.16;100434.03;5013595;28;45672;-62
2023/04/14 02:01:24;;;;;;;;;2.00;2.00;;;;;10.79;56.10;100438.41;5010743;28;45585;-60
2023/04/14 02:03:49;;;;;;;;;1.00;1.00;;;;;10.75;56.20;100426.75;5011694;28;45549;-61
2023/04/14 02:06:16;;;;;;;;;2.00;2.00;;;;;10.69;56.18;100418.63;5013960;28;45418;-61
2023/04/14 02:08:42;;;;;;;;;3.00;2.00;;;;;10.73;56.15;100427.63;5013934;28;45414;-61
2023/04/14 02:11:10;;;;;;;;;3.00;1.00;;;;;10.73;56.89;100432.97;5013273;28;47989;-59
2023/04/14 02:13:39;;;;;;;;;1.75;1.00;;;;;10.65;56.00;100431.00;5013695;28;45402;-61
2023/04/14 02:16:07;;;;;;;;;1.00;1.00;;;;;10.66;56.58;100437.28;5012508;28;47009;-62
2023/04/14 02:18:34;;;;;;;;;1.00;1.00;;;;;10.70;56.38;100436.47;5013422;28;45581;-62
2023/04/14 02:21:02;;;;;;;;;6.00;2.00;;;;;10.72;56.22;100442.72;5012911;28;46398;-62
2023/04/14 02:23:27;;;;;;;;;2.00;2.00;;;;;10.68;56.26;100435.53;5012706;28;45403;-62
2023/04/14 02:25:59;;;;;;;;;5.00;3.00;;;;;10.70;56.12;100439.13;5013828;28;45541;-61
2023/04/14 02:28:28;;;;;;;;;1.75;1.75;;;;;10.67;56.40;100436.38;5009047;28;45445;-61
2023/04/14 02:30:57;;;;;;;;;3.75;2.50;;;;;10.66;56.54;100439.94;5010690;28;46004;-62
2023/04/14 02:33:28;;;;;;;;;2.00;2.00;;;;;10.66;56.72;100432.84;5028485;28;45729;-62
2023/04/14 02:36:09;;;;;;;;;2.00;2.00;;;;;10.67;56.53;100436.38;5010057;28;45534;-61
2023/04/14 02:38:53;;;;;;;;;2.25;1.25;;;;;10.64;56.62;100429.22;5014048;28;45668;-62
2023/04/14 02:41:24;;;;;;;;;1.00;1.00;;;;;10.30;56.44;100359.03;5012318;28;46273;-62
2023/04/14 02:44:02;;;;;;;;;2.00;2.00;;;;;10.59;57.00;100411.28;5011328;28;45725;-61
2023/04/14 02:46:34;;;;;;;;;2.00;2.00;;;;;10.65;56.71;100414.97;5017636;28;45412;-60
2023/04/14 02:49:02;;;;;;;;;3.75;2.25;;;;;10.68;56.33;100423.06;5024365;28;45406;-61
2023/04/14 02:51:30;;;;;;;;;2.50;2.00;;;;;10.42;57.20;100374.44;5025263;28;45433;-63
2023/04/14 02:53:56;;;;;;;;;2.00;2.00;;;;;10.70;56.90;100410.63;5030535;28;45155;-61
2023/04/14 02:56:23;;;;;;;;;1.00;0.00;;;;;10.76;56.68;100406.31;5025246;28;45096;-61
2023/04/14 02:58:49;;;;;;;;;1.00;1.00;;;;;10.79;56.46;100404.59;5031054;28;45222;-64
2023/04/14 03:01:16;;;;;;;;;1.00;1.00;;;;;10.80;56.29;100409.03;5033016;28;45756;-62
2023/04/14 03:03:42;;;;;;;;;2.25;2.25;;;;;10.83;56.28;100398.44;5030738;28;45488;-61
2023/04/14 03:06:08;;;;;;;;;3.00;2.00;;;;;10.80;56.41;100398.34;5022938;28;44988;-63
2023/04/14 03:08:36;;;;;;;;;3.00;1.25;;;;;10.74;55.94;100400.00;5029206;28;45187;-62
2023/04/14 03:11:03;;;;;;;;;1.00;1.00;;;;;10.68;56.40;100393.69;5028444;28;45258;-63
2023/04/14 03:13:33;;;;;;;;;1.00;1.00;;;;;10.62;56.50;100388.19;5033702;28;45195;-61
2023/04/14 03:15:58;;;;;;;;;2.00;2.00;;;;;10.43;56.61;100351.31;5020766;28;45630;-62
2023/04/14 03:18:25;;;;;;;;;2.00;2.00;;;;;10.60;56.74;100386.38;5029701;28;45194;-61
2023/04/14 03:20:54;;;;;;;;;2.00;2.00;;;;;10.60;56.86;100381.94;5029825;28;45438;-62
2023/04/14 03:23:23;;;;;;;;;3.25;2.00;;;;;10.60;57.38;100383.72;5031556;28;45147;-61
2023/04/14 03:25:50;;;;;;;;;4.00;4.00;;;;;10.60;57.07;100383.72;5030975;28;45070;-61
2023/04/14 03:28:21;;;;;;;;;2.75;2.75;;;;;10.44;56.89;100351.38;5030253;28;44844;-62
2023/04/14 03:30:51;;;;;;;;;3.50;2.50;;;;;10.37;56.74;100332.50;5026892;28;45182;-62
2023/04/14 03:33:20;;;;;;;;;2.25;2.25;;;;;10.42;57.03;100342.41;5025290;28;45319;-63
2023/04/14 03:35:46;;;;;;;;;4.00;2.25;;;;;10.48;57.13;100345.19;5025972;28;45034;-62
2023/04/14 03:38:14;;;;;;;;;4.00;4.00;;;;;10.61;57.22;100381.06;5028654;28;45102;-62
2023/04/14 03:40:45;;;;;;;;;3.00;3.00;;;;;10.65;57.40;100387.38;5024220;28;45522;-62
2023/04/14 03:43:12;;;;;;;;;4.75;4.00;;;;;10.63;56.71;100375.78;5030159;28;45042;-61
2023/04/14 03:45:39;;;;;;;;;4.00;3.00;;;;;10.70;56.89;100385.69;5029021;28;45042;-62
2023/04/14 03:48:10;;;;;;;;;4.00;4.00;;;;;10.74;57.26;100381.31;5023380;28;45246;-62
2023/04/14 03:50:41;;;;;;;;;4.50;3.50;;;;;10.64;57.19;100378.47;5026977;28;45053;-62
2023/04/14 03:53:11;;;;;;;;;3.00;3.00;;;;;10.27;57.92;100334.03;5029831;28;45553;-61
2023/04/14 03:55:37;;;;;;;;;6.75;5.75;;;;;10.45;57.67;100381.63;5026863;28;45138;-61
2023/04/14 03:58:07;;;;;;;;;6.00;5.00;;;;;10.44;58.12;100380.75;5029168;28;45111;-61
2023/04/14 04:00:34;;;;;;;;;11.25;9.00;;;;;10.31;57.47;100360.84;5028157;28;45167;-61
2023/04/14 04:03:00;;;;;;;;;3.75;3.75;;;;;10.09;57.94;100322.09;5030960;28;44973;-63
2023/04/14 04:05:26;;;;;;;;;4.00;4.00;;;;;10.20;57.65;100341.03;5028108;28;45436;-60
2023/04/14 04:07:55;;;;;;;;;4.00;4.00;;;;;10.26;57.88;100372.28;5026051;28;45001;-62
2023/04/14 04:10:21;;;;;;;;;3.25;3.25;;;;;10.18;58.17;100360.53;5028897;28;46264;-62
2023/04/14 04:12:48;;;;;;;;;4.00;4.00;;;;;10.26;58.83;100366.94;5031333;28;45174;-62
2023/04/14 04:15:14;;;;;;;;;3.50;3.00;;;;;10.22;58.29;100362.41;5030033;28;45097;-63
2023/04/14 04:17:41;;;;;;;;;3.75;3.75;;;;;10.28;58.48;100368.78;5026585;28;45136;-62
2023/04/14 04:20:11;;;;;;;;;6.00;4.25;;;;;10.34;58.24;100370.72;5044851;28;47176;-60
2023/04/14 04:22:40;;;;;;;;;4.50;3.00;;;;;10.33;58.33;100367.16;5036066;28;45236;-62
2023/04/14 04:25:10;;;;;;;;;4.25;3.00;;;;;10.26;58.39;100356.25;5030773;28;45073;-63
2023/04/14 04:27:36;;;;;;;;;8.00;4.00;;;;;10.29;58.33;100359.88;5030032;28;45152;-61
2023/04/14 04:30:05;;;;;;;;;4.50;3.25;;;;;10.20;58.29;100343.69;5030849;28;45829;-62
2023/04/14 04:32:31;;;;;;;;;3.75;3.00;;;;;10.28;58.74;100357.22;5021570;28;45470;-62
2023/04/14 04:34:58;;;;;;;;;5.75;3.25;;;;;10.14;58.61;100344.44;5025082;28;45495;-59
2023/04/14 04:37:27;;;;;;;;;5.00;3.50;;;;;10.28;58.52;100352.78;5031475;28;44938;-59
2023/04/14 04:39:55;;;;;;;;;4.00;3.25;;;;;10.28;58.51;100350.09;5022548;28;45652;-61
2023/04/14 04:42:21;;;;;;;;;4.00;4.00;;;;;10.24;58.31;100341.97;5024844;28;45091;-62
2023/04/14 04:44:46;;;;;;;;;3.25;3.25;;;;;10.31;58.09;100350.16;5029734;28;59412;-60
2023/04/14 04:47:12;;;;;;;;;4.50;4.50;;;;;10.37;58.20;100340.50;5030157;28;45443;-61
2023/04/14 04:49:37;;;;;;;;;7.00;4.00;;;;;10.37;57.96;100346.75;5022305;28;46373;-61
2023/04/14 04:52:03;;;;;;;;;6.00;3.00;;;;;10.29;58.27;100342.97;5031119;28;47110;-61
2023/04/14 04:54:29;;;;;;;;;5.50;3.75;;;;;10.24;58.34;100331.31;5033470;28;45121;-60
2023/04/14 04:56:56;;;;;;;;;5.50;4.00;;;;;10.29;58.34;100341.19;5033198;28;45223;-61
2023/04/14 04:59:21;;;;;;;;;3.00;3.00;;;;;10.33;58.03;100342.22;5027441;28;45597;-62
2023/04/14 05:01:47;;;;;;;;;5.75;4.00;;;;;10.35;58.58;100334.25;5032091;28;45022;-62
2023/04/14 05:04:12;;;;;;;;;5.25;2.75;;;;;10.37;59.12;100333.38;5030010;28;45107;-63
2023/04/14 05:06:37;;;;;;;;;4.25;4.00;;;;;10.25;58.17;100328.66;5028692;28;46163;-62
2023/04/14 05:09:03;;;;;;;;;5.75;5.75;;;;;10.14;58.33;100311.53;5031332;28;45536;-65
2023/04/14 05:11:30;;;;;;;;;4.50;2.25;;;;;10.25;58.52;100333.13;5031728;28;45286;-62
2023/04/14 05:13:55;;;;;;;;;3.75;3.75;;;;;10.21;59.14;100325.91;5027543;28;45383;-61
2023/04/14 05:16:20;;;;;;;;;5.00;5.00;;;;;10.24;59.49;100331.31;5027321;28;45709;-61
2023/04/14 05:18:46;;;;;;;;;6.25;4.00;;;;;10.19;59.48;100331.19;5030816;28;52651;-61
2023/04/14 05:21:12;;;;;;;;;8.00;4.75;;;;;10.09;59.49;100310.53;5023102;28;44988;-63
2023/04/14 05:23:41;;;;;;;;;5.75;4.00;;;;;10.11;59.42;100314.13;5029948;28;45519;-64
2023/04/14 05:26:07;;;;;;;;;3.50;3.50;;;;;9.89;59.68;100288.75;5031411;28;45200;-62
2023/04/14 05:28:33;;;;;;;;;5.50;5.50;;;;;9.96;59.61;100290.69;5025654;28;46954;-63
2023/04/14 05:30:58;;;;;;;;;7.75;5.00;;;;;9.96;60.09;100299.59;5030054;28;45265;-62
2023/04/14 05:33:23;;;;;;;;;4.00;4.00;;;;;9.95;60.39;100294.22;5032699;28;44986;-60
2023/04/14 05:35:49;;;;;;;;;5.75;5.75;;;;;10.12;59.21;100310.59;5032644;28;45405;-61
2023/04/14 05:38:16;;;;;;;;;4.50;4.25;;;;;10.00;59.59;100300.56;5047647;28;46833;-61
2023/04/14 05:40:42;;;;;;;;;6.25;6.00;;;;;9.94;59.86;100306.66;5026899;28;44947;-62
2023/04/14 05:43:07;;;;;;;;;4.75;4.75;;;;;9.76;60.40;100261.78;5032705;28;45413;-62
2023/04/14 05:45:33;;;;;;;;;5.00;4.75;;;;;10.01;59.77;100312.13;5028427;28;45432;-64
2023/04/14 05:47:58;;;;;;;;;5.75;4.00;;;;;9.94;60.40;100313.78;5031758;28;46370;-62
2023/04/14 05:50:23;;;;;;;;;8.50;5.50;;;;;9.98;60.17;100307.63;5028648;28;47866;-64
2023/04/14 05:52:50;;;;;;;;;6.50;6.50;;;;;9.89;60.32;100307.44;5028407;28;45285;-62
2023/04/14 05:55:16;;;;;;;;;6.25;5.00;;;;;9.77;61.05;100295.63;5029423;28;45197;-62
2023/04/14 05:57:42;;;;;;;;;7.50;7.50;;;;;9.80;60.79;100301.88;5025457;28;45247;-64
2023/04/14 06:00:09;;;;;;;;;17.00;8.50;;;;;9.77;60.80;100302.72;5025267;28;45211;-63
2023/04/14 06:02:35;;;;;;;;;9.25;7.25;;;;;9.64;60.91;100274.88;5029878;28;45316;-65
2023/04/14 06:05:00;;;;;;;;;6.25;6.25;;;;;9.80;60.86;100288.53;5024994;28;45194;-64
2023/04/14 06:07:26;;;;;;;;;1.00;1.00;;;;;9.85;60.30;100284.19;5030172;28;45429;-61
2023/04/14 06:09:52;;;;;;;;;9.00;5.50;;;;;9.90;59.96;100279.88;5027650;28;44950;-62
2023/04/14 06:12:17;;;;;;;;;7.25;7.25;;;;;9.92;59.99;100287.06;5012791;28;45436;-64
2023/04/14 06:14:43;;;;;;;;;7.00;7.00;;;;;9.99;60.70;100282.75;5021873;28;45482;-61
2023/04/14 06:17:08;;;;;;;;;10.00;6.00;;;;;10.00;60.35;100272.97;5032092;28;45601;-64
2023/04/14 06:19:33;;;;;;;;;8.25;8.25;;;;;9.96;59.79;100272.91;5019155;28;45498;-64
2023/04/14 06:21:59;;;;;;;;;14.75;10.75;;;;;9.95;60.32;100283.56;5015510;28;45282;-64
2023/04/14 06:24:24;;;;;;;;;4.50;4.50;;;;;9.80;60.15;100270.78;5013615;28;45313;-63
2023/04/14 06:26:50;;;;;;;;;9.00;6.75;;;;;9.90;60.93;100279.88;5012933;28;46928;-64
2023/04/14 06:29:16;;;;;;;;;7.25;7.25;;;;;9.91;60.68;100281.69;5014431;28;45595;-65
2023/04/14 06:31:42;;;;;;;;;17.00;11.50;;;;;9.84;60.26;100272.63;5014646;28;45766;-67
2023/04/14 06:34:07;;;;;;;;;9.75;9.75;;;;;9.98;60.50;100280.94;5021112;28;45700;-66
2023/04/14 06:36:33;;;;;;;;;12.00;10.00;;;;;10.03;59.90;100281.03;5014159;28;46124;-64
2023/04/14 06:38:59;;;;;;;;;8.75;8.75;;;;;10.03;60.29;100267.69;5014972;28;45599;-64
2023/04/14 06:41:25;;;;;;;;;13.50;9.25;;;;;10.18;60.20;100272.44;5012995;28;45297;-66
2023/04/14 06:43:51;;;;;;;;;9.50;8.00;;;;;10.18;59.68;100257.34;5011166;28;45431;-66
2023/04/14 06:46:16;;;;;;;;;14.00;9.75;;;;;9.83;59.91;100189.91;5014126;28;46097;-64
2023/04/14 06:48:42;;;;;;;;;9.25;9.25;;;;;10.26;59.42;100245.06;5014618;28;45530;-65
2023/04/14 06:51:11;;;;;;;;;14.75;10.50;;;;;10.25;59.23;100248.56;5015522;28;45416;-64
2023/04/14 06:53:37;;;;;;;;;12.25;9.25;;;;;10.21;59.79;100245.81;5013814;28;45553;-65
2023/04/14 06:56:04;;;;;;;;;14.75;11.75;;;;;10.17;59.76;100243.97;5025856;28;45551;-67
2023/04/14 06:58:29;;;;;;;;;12.00;12.00;;;;;9.92;59.72;100193.66;5011170;28;45500;-65
2023/04/14 07:01:00;;;;;;;;;15.00;11.50;;;;;10.24;60.12;100251.22;5009414;28;45513;-67
2023/04/14 07:03:26;;;;;;;;;14.50;9.75;;;;;10.12;59.84;100220.72;5015354;28;45409;-68
2023/04/14 07:05:52;;;;;;;;;9.75;9.75;;;;;10.24;60.05;100245.88;5010341;28;45579;-68
2023/04/14 07:08:18;;;;;;;;;13.00;12.00;;;;;10.28;59.75;100245.97;5025577;28;45684;-67
2023/04/14 07:10:44;;;;;;;;;12.25;8.25;;;;;10.24;59.17;100230.75;5013203;28;45293;-68
2023/04/14 07:13:10;;;;;;;;;12.50;12.50;;;;;10.46;59.21;100253.47;5014577;28;45328;-65
2023/04/14 07:15:35;;;;;;;;;8.25;8.25;;;;;10.22;59.31;100180.88;5011320;28;45634;-65
2023/04/14 07:18:01;;;;;;;;;15.50;13.25;;;;;10.54;59.13;100244.69;5011135;28;45435;-64
2023/04/14 07:20:27;;;;;;;;;13.00;11.25;;;;;10.50;59.39;100238.41;5023512;28;45434;-66
2023/04/14 07:22:53;;;;;;;;;16.00;12.75;;;;;10.62;59.63;100238.59;5008132;28;45527;-67
2023/04/14 07:25:18;;;;;;;;;16.75;9.50;;;;;10.57;59.38;100220.72;5010745;28;47146;-67
2023/04/14 07:27:44;;;;;;;;;13.25;12.50;;;;;10.79;58.65;100235.31;5011172;28;45429;-64
2023/04/14 07:30:10;;;;;;;;;12.50;11.00;;;;;10.83;58.26;100227.41;5005782;28;45415;-64
2023/04/14 07:32:36;;;;;;;;;13.25;9.25;;;;;10.81;57.98;100222.91;5011237;28;45637;-67
2023/04/14 07:35:02;;;;;;;;;12.75;11.50;;;;;10.87;58.62;100223.00;5007725;28;46358;-67
2023/04/14 07:37:28;;;;;;;;;10.25;8.00;;;;;10.95;57.75;100221.34;5011353;28;45498;-66
2023/04/14 07:39:53;;;;;;;;;9.25;9.25;;;;;10.95;57.60;100223.13;5008442;28;45540;-65
2023/04/14 07:42:18;;;;;;;;;8.00;8.00;;;;;10.95;57.64;100204.41;5013588;28;45485;-65
2023/04/14 07:44:44;;;;;;;;;12.75;9.25;;;;;10.99;57.60;100200.94;5012772;28;47061;-65
2023/04/14 07:47:10;;;;;;;;;13.50;8.75;;;;;11.12;57.02;100216.28;5006993;28;61486;-65
2023/04/14 07:49:35;;;;;;;;;9.75;9.75;;;;;11.13;57.06;100191.34;5009073;28;45520;-66
2023/04/14 07:52:01;;;;;;;;;9.25;9.25;;;;;11.10;57.26;100206.44;5014187;28;45556;-65
2023/04/14 07:54:27;;;;;;;;;15.50;10.75;;;;;11.12;56.92;100192.22;5015757;28;46078;-67
2023/04/14 07:56:52;;;;;;;;;10.00;8.75;;;;;11.19;56.95;100188.75;5004319;28;45415;-66
2023/04/14 07:59:17;;;;;;;;;9.75;8.75;;;;;11.30;56.28;100191.59;5015976;28;45657;-67
2023/04/14 08:01:43;;;;;;;;;7.25;6.25;;;;;11.20;56.98;100186.97;5008658;28;45326;-65
2023/04/14 08:04:08;;;;;;;;;7.50;7.50;;;;;11.23;56.72;100184.34;5010501;28;50433;-66
2023/04/14 08:06:34;;;;;;;;;8.00;8.00;;;;;11.13;56.86;100171.72;5011565;28;54016;-69
2023/04/14 08:08:59;;;;;;;;;11.00;9.00;;;;;11.11;56.80;100160.13;5005548;28;46122;-64
2023/04/14 08:11:25;;;;;;;;;11.00;8.50;;;;;11.31;56.87;100181.78;5009367;28;45455;-67
2023/04/14 08:13:51;;;;;;;;;9.25;7.25;;;;;11.18;57.13;100186.06;5009948;28;46095;-66
2023/04/14 08:16:17;;;;;;;;;7.75;7.00;;;;;11.17;57.58;100187.84;5008164;28;45508;-63
2023/04/14 08:18:43;;;;;;;;;7.25;6.75;;;;;11.12;56.94;100164.56;5011884;28;45589;-64
2023/04/14 08:21:08;;;;;;;;;6.25;5.75;;;;;11.08;56.82;100168.97;5020972;28;45526;-65
2023/04/14 08:23:34;;;;;;;;;10.75;8.25;;;;;11.24;56.73;100188.84;5013785;28;46964;-65
2023/04/14 08:25:59;;;;;;;;;8.25;8.25;;;;;11.31;56.79;100188.03;5011453;28;45681;-64
2023/04/14 08:28:27;;;;;;;;;13.00;9.00;;;;;11.31;57.59;100174.66;5014942;28;45524;-66
2023/04/14 08:30:52;;;;;;;;;7.75;7.75;;;;;11.24;57.50;100164.78;5013151;28;45574;-68
2023/04/14 08:33:17;;;;;;;;;10.00;10.00;;;;;11.25;57.28;100178.16;5012248;28;61083;-67
2023/04/14 08:35:42;;;;;;;;;7.00;5.50;;;;;11.21;56.55;100146.91;5012715;28;46123;-67
2023/04/14 08:38:08;;;;;;;;;6.75;6.75;;;;;11.25;56.97;100146.06;5014311;28;45601;-68
2023/04/14 08:40:38;;;;;;;;;9.25;6.25;;;;;11.33;56.42;100153.28;5009466;28;45575;-65
2023/04/14 08:43:04;;;;;;;;;4.50;4.50;;;;;11.47;56.58;100167.75;5011986;28;45573;-67
2023/04/14 08:45:33;;;;;;;;;5.25;5.25;;;;;11.38;56.49;100156.91;5008288;28;45479;-67
2023/04/14 08:48:00;;;;;;;;;8.00;4.00;;;;;11.38;56.74;100160.53;5015139;28;45422;-64
2023/04/14 08:50:31;;;;;;;;;6.25;5.25;;;;;11.39;56.64;100161.41;5011967;28;45446;-65
2023/04/14 08:53:00;;;;;;;;;4.50;4.50;;;;;11.34;57.17;100152.44;5015685;28;45953;-67
2023/04/14 08:55:28;;;;;;;;;6.50;5.75;;;;;11.43;57.49;100163.22;5009138;28;45309;-67
2023/04/14 08:57:54;;;;;;;;;10.50;7.00;;;;;11.37;57.31;100133.75;5014186;28;45567;-66
2023/04/14 09:00:20;;;;;;;;;7.00;6.25;;;;;10.59;57.15;100003.50;5015157;28;45703;-65
2023/04/14 09:02:46;;;;;;;;;6.25;5.00;;;;;11.39;57.72;100158.72;5008464;28;45627;-64
2023/04/14 09:05:12;;;;;;;;;7.25;6.00;;;;;11.34;57.46;100150.63;5012902;28;45601;-65
2023/04/14 09:07:37;;;;;;;;;5.25;5.00;;;;;11.47;57.28;100149.03;5013340;28;45416;-68
2023/04/14 09:10:03;;;;;;;;;8.50;5.50;;;;;11.47;57.13;100143.69;5013511;28;45497;-64
2023/04/14 09:12:29;;;;;;;;;6.75;5.00;;;;;11.50;56.84;100138.38;5013288;28;46030;-65
2023/04/14 09:14:57;;;;;;;;;7.25;7.25;;;;;11.55;57.24;100128.63;5014218;28;45388;-63
2023/04/14 09:17:27;;;;;;;;;7.25;6.25;;;;;11.65;56.26;100128.72;5013372;28;45490;-64
2023/04/14 09:19:52;;;;;;;;;5.25;4.25;;;;;11.75;55.91;100128.84;5009086;28;45354;-65
2023/04/14 09:22:18;;;;;;;;;3.00;3.00;;;;;11.75;56.69;100127.97;5008517;28;46389;-63
2023/04/14 09:24:43;;;;;;;;;4.50;4.50;;;;;11.61;56.25;100101.03;5013400;28;45410;-64
2023/04/14 09:27:09;;;;;;;;;4.25;4.25;;;;;11.65;56.36;100110.91;5013236;28;45473;-65
2023/04/14 09:29:36;;;;;;;;;4.50;4.50;;;;;11.59;56.24;100117.06;5010918;28;45495;-65
2023/04/14 09:32:03;;;;;;;;;5.75;4.75;;;;;11.71;55.67;100110.06;5011893;28;45626;-65
2023/04/14 09:34:29;;;;;;;;;8.25;3.50;;;;;11.72;55.92;100111.88;5012875;28;45503;-64
2023/04/14 09:37:04;;;;;;;;;6.25;6.25;;;;;11.45;56.23;100086.59;5010310;28;46264;-65
2023/04/14 09:39:33;;;;;;;;;5.25;5.00;;;;;11.55;57.03;100117.00;5007921;28;45561;-65
2023/04/14 09:42:02;;;;;;;;;2.50;2.50;;;;;11.57;56.56;100110.81;5014222;28;45385;-65
2023/04/14 09:44:29;;;;;;;;;5.00;3.25;;;;;11.61;56.97;100107.31;5012414;28;45465;-65
2023/04/14 09:47:04;;;;;;;;;7.00;3.50;;;;;11.68;56.24;100105.59;5015219;28;45477;-66
2023/04/14 09:49:29;;;;;;;;;1.00;1.00;;;;;11.75;56.65;100098.53;5015092;28;45562;-65
2023/04/14 09:52:07;;;;;;;;;7.00;4.00;;;;;11.76;56.31;100106.59;5010422;28;45921;-65
2023/04/14 09:54:34;;;;;;;;;1.75;1.75;;;;;11.76;56.25;100087.84;5008719;28;45517;-64
2023/04/14 09:57:00;;;;;;;;;3.00;3.00;;;;;11.82;56.53;100091.47;5024653;28;45346;-64
2023/04/14 09:59:32;;;;;;;;;3.25;3.25;;;;;11.82;56.54;100088.78;5013553;28;45339;-63
2023/04/14 10:02:05;;;;;;;;;4.67;3.00;;;;;11.91;56.73;100087.16;5010255;28;45418;-66
2023/04/14 10:04:31;;;;;;;;;3.00;3.00;;;;;11.90;56.23;100071.91;5027334;28;45360;-64
2023/04/14 10:06:57;;;;;;;;;5.75;5.75;;;;;11.97;56.77;100075.59;5015427;28;45448;-65
2023/04/14 10:09:26;;;;;;;;;5.00;3.75;;;;;12.00;56.13;100069.38;5009793;28;45545;-64
2023/04/14 10:12:12;;;;;;;;;4.75;4.00;;;;;12.08;55.63;100079.28;5011092;28;46530;-65
2023/04/14 10:14:42;;;;;;;;;3.25;2.50;;;;;12.12;56.30;100072.16;5009775;28;45352;-68
2023/04/14 10:17:08;;;;;;;;;6.00;3.75;;;;;12.23;55.27;100067.81;5009699;28;45561;-66
2023/04/14 10:19:36;;;;;;;;;4.00;4.00;;;;;12.34;54.78;100073.22;5006815;28;45558;-65
2023/04/14 10:22:03;;;;;;;;;2.00;2.00;;;;;12.29;55.15;100053.53;5007805;28;45756;-64
2023/04/14 10:24:29;;;;;;;;;7.50;3.25;;;;;12.11;54.65;100033.78;5015968;28;45436;-66
2023/04/14 10:26:55;;;;;;;;;4.25;2.00;;;;;12.26;54.99;100051.75;5017906;28;45466;-68
2023/04/14 10:29:21;;;;;;;;;3.00;3.00;;;;;12.27;55.07;100058.88;5010548;28;45511;-67
2023/04/14 10:32:02;;;;;;;;;3.75;3.00;;;;;12.24;56.84;100044.59;5009656;28;45488;-66
2023/04/14 10:34:31;;;;;;;;;3.00;1.67;;;;;12.25;57.10;100039.25;5011016;28;45489;-67
2023/04/14 10:37:13;;;;;;;;;4.75;1.75;;;;;12.27;57.29;100042.81;5009335;28;45527;-64
2023/04/14 10:39:39;;;;;;;;;4.67;4.00;;;;;12.22;57.63;100032.97;5009112;28;45707;-63
2023/04/14 10:42:05;;;;;;;;;3.00;2.33;;;;;12.39;57.30;100047.41;5010037;28;46386;-67
2023/04/14 10:44:32;;;;;;;;;4.75;2.50;;;;;12.44;56.81;100036.69;5014667;28;45894;-66
2023/04/14 10:47:03;;;;;;;;;2.67;2.67;;;;;12.43;56.69;100030.44;5014171;28;45480;-64
2023/04/14 10:49:37;;;;;;;;;3.67;3.00;;;;;12.49;55.53;100035.88;5016610;28;45803;-67
2023/04/14 10:52:03;;;;;;;;;4.33;4.00;;;;;12.35;56.15;100029.50;5013152;28;47038;-67
2023/04/14 10:54:47;;;;;;;;;10.50;5.50;;;;;12.30;56.03;100033.94;5009597;28;45388;-67
2023/04/14 10:57:14;;;;;;;;;5.50;4.00;;;;;12.15;55.35;100035.59;5014729;28;45507;-65
2023/04/14 10:59:44;;;;;;;;;3.00;2.25;;;;;12.03;55.91;100002.44;5008161;28;45608;-67
2023/04/14 11:02:29;;;;;;;;;5.25;4.00;;;;;12.25;56.22;100019.59;5006379;28;46249;-64
2023/04/14 11:04:59;;;;;;;;;4.75;3.25;;;;;12.32;55.52;100008.97;5012449;28;45455;-66
2023/04/14 11:07:27;;;;;;;;;4.67;3.00;;;;;12.27;55.38;99997.28;5008253;28;44839;-66
2023/04/14 11:09:58;;;;;;;;;4.50;3.50;;;;;11.71;55.72;99882.63;5012634;28;45465;-64
2023/04/14 11:12:27;;;;;;;;;4.33;3.00;;;;;12.49;54.19;99998.34;5009597;28;46354;-64
2023/04/14 11:15:01;;;;;;;;;7.75;6.00;;;;;12.56;55.69;100001.06;5012880;28;45450;-66
2023/04/14 11:17:29;;;;;;;;;4.33;3.00;;;;;12.59;55.37;99998.38;5010197;28;45360;-66
2023/04/14 11:19:56;;;;;;;;;6.25;4.50;;;;;12.42;54.88;99966.16;5012560;28;45499;-64
2023/04/14 11:22:40;;;;;;;;;6.00;5.75;;;;;12.58;55.58;99980.53;5012725;28;46878;-66
2023/04/14 11:25:07;;;;;;;;;9.75;5.75;;;;;12.56;57.21;99972.50;5014644;28;45510;-64
2023/04/14 11:27:33;;;;;;;;;7.00;6.50;;;;;12.62;56.83;99963.56;5015013;28;45638;-66